Van Buren, Washington
Current Conditions -  °F | °C
As of 5:00 PM on Thursday 18 Dec 2014 (Local Time) from CYXX Reporting Station
Light Rain Light Rain  
Wind Chill:   Ceiling: 3000
Heat Index:   Visibility: 10mi
Dew Point:   Wind: 6mph
Humidity: 100%   Direction: 360°N
Pressure: 29.75"   Gusts: NA
Location:  48.9068°N, 122.295°W
Report Text: CYXX 190100Z 36005KT 350V060 10SM -RA OVC030 06/06 A2975 RMK SC8 SLP076
Loading
Personal Weather Stations






























Interactive Weather Map New forecast layout! Learn more

10-Day Weather Forecast

Advertisements
Track Severe Weather on mobile